Time;durP1;ratioP1;P1;durP2;ratioP2;P2;SDS_P1;SDS_P2;PMS_P1;PMS_P2;Temp;Humidity;BMP_temperature;BMP_pressure;BME280_temperature;BME280_humidity;BME280_pressure;Samples;Min_cycle;Max_cycle;Signal;HPM_P1;HPM_P2
2023/01/23 00:01:34;;;;;;;;;;;;;;;1.26;100.00;103659.00;5069766;28;19991;-73
2023/01/23 00:04:00;;;;;;;;;;;;;;;1.26;100.00;103656.41;5065284;28;20042;-74
2023/01/23 00:06:26;;;;;;;;;;;;;;;1.26;100.00;103655.50;5072464;28;20412;-74
2023/01/23 00:08:51;;;;;;;;;;;;;;;1.26;100.00;103655.50;5067052;28;19959;-74
2023/01/23 00:11:18;;;;;;;;;;;;;;;1.26;100.00;103652.88;5071974;28;19928;-74
2023/01/23 00:13:43;;;;;;;;;;;;;;;1.25;100.00;103651.97;5067040;28;19931;-74
2023/01/23 00:16:10;;;;;;;;;;;;;;;1.25;100.00;103654.59;5069579;28;19924;-74
2023/01/23 00:18:35;;;;;;;;;;;;;;;1.25;100.00;103654.59;5066529;28;19928;-74
2023/01/23 00:21:04;;;;;;;;;;;;;;;1.24;100.00;103652.81;5066470;28;21073;-73
2023/01/23 00:23:30;;;;;;;;;;;;;;;1.25;100.00;103653.72;5072164;28;20378;-74
2023/01/23 00:25:55;;;;;;;;;;;;;;;1.24;100.00;103646.72;5072224;28;19963;-74
2023/01/23 00:28:20;;;;;;;;;;;;;;;1.26;100.00;103650.28;5066476;28;20460;-73
2023/01/23 00:30:46;;;;;;;;;;;;;;;1.25;100.00;103648.50;5067317;28;20017;-73
2023/01/23 00:33:11;;;;;;;;;;;;;;;1.25;100.00;103644.16;5066292;28;19955;-73
2023/01/23 00:35:37;;;;;;;;;;;;;;;1.26;100.00;103645.06;5064544;28;19964;-74
2023/01/23 00:38:02;;;;;;;;;;;;;;;1.26;100.00;103640.75;5050484;28;19928;-74
2023/01/23 00:40:27;;;;;;;;;;;;;;;1.26;100.00;103645.97;5065818;28;20279;-74
2023/01/23 00:42:53;;;;;;;;;;;;;;;1.26;100.00;103637.22;5066258;28;20398;-74
2023/01/23 00:45:18;;;;;;;;;;;;;;;1.26;100.00;103635.53;5054923;28;19967;-75
2023/01/23 00:47:43;;;;;;;;;;;;;;;1.25;100.00;103635.44;5065564;28;20436;-74
2023/01/23 00:50:09;;;;;;;;;;;;;;;1.25;100.00;103635.44;5065481;28;19932;-73
2023/01/23 00:52:35;;;;;;;;;;;;;;;1.26;100.00;103634.63;5067480;28;19932;-75
2023/01/23 00:55:00;;;;;;;;;;;;;;;1.25;100.00;103633.72;5071471;28;19935;-74
2023/01/23 00:57:26;;;;;;;;;;;;;;;1.25;100.00;103630.22;5065950;28;20295;-74
2023/01/23 00:59:51;;;;;;;;;;;;;;;1.26;100.00;103637.22;5071481;28;19932;-74
2023/01/23 01:02:17;;;;;;;;;;;;;;;1.25;100.00;103627.63;5070057;28;19928;-74
2023/01/23 01:04:42;;;;;;;;;;;;;;;1.25;100.00;103631.09;5069004;28;20035;-74
2023/01/23 01:07:08;;;;;;;;;;;;;;;1.25;100.00;103627.63;5065601;28;19943;-74
2023/01/23 01:09:33;;;;;;;;;;;;;;;1.25;100.00;103633.72;5068583;28;19935;-73
2023/01/23 01:11:59;;;;;;;;;;;;;;;1.24;100.00;103639.78;5065247;28;19994;-74
2023/01/23 01:14:24;;;;;;;;;;;;;;;1.24;100.00;103636.28;5065059;28;19928;-73
2023/01/23 01:16:49;;;;;;;;;;;;;;;1.22;100.00;103634.47;5068456;28;20310;-73
2023/01/23 01:19:16;;;;;;;;;;;;;;;1.24;100.00;103644.13;5071595;28;19928;-74
2023/01/23 01:21:41;;;;;;;;;;;;;;;1.24;100.00;103641.50;5065362;28;20015;-74
2023/01/23 01:24:07;;;;;;;;;;;;;;;1.21;100.00;103637.94;5070877;28;19977;-74
2023/01/23 01:26:33;;;;;;;;;;;;;;;1.21;100.00;103642.28;5071312;28;20446;-74
2023/01/23 01:28:58;;;;;;;;;;;;;;;1.20;100.00;103643.97;5070997;28;19936;-74
2023/01/23 01:31:23;;;;;;;;;;;;;;;1.19;100.00;103644.81;5064942;28;19928;-73
2023/01/23 01:33:49;;;;;;;;;;;;;;;1.20;100.00;103640.50;5070517;28;20344;-73
2023/01/23 01:36:16;;;;;;;;;;;;;;;1.20;100.00;103648.34;5065061;28;19928;-74
2023/01/23 01:38:41;;;;;;;;;;;;;;;1.18;100.00;103640.44;5070918;28;19939;-74
2023/01/23 01:41:07;;;;;;;;;;;;;;;1.18;100.00;103643.03;5064965;28;19928;-74
2023/01/23 01:43:33;;;;;;;;;;;;;;;1.16;100.00;103644.72;5070761;28;19974;-73
2023/01/23 01:46:06;;;;;;;;;;;;;;;1.15;100.00;103645.50;5065261;28;19931;-73
2023/01/23 01:48:38;;;;;;;;;;;;;;;1.16;100.00;103649.03;5065369;28;20643;-73
2023/01/23 01:51:05;;;;;;;;;;;;;;;1.16;100.00;103657.75;5064895;28;19928;-75
2023/01/23 01:53:31;;;;;;;;;;;;;;;1.15;100.00;103658.56;5067223;28;19924;-74
2023/01/23 01:55:56;;;;;;;;;;;;;;;1.15;100.00;103663.78;5070869;28;19946;-73
2023/01/23 01:58:21;;;;;;;;;;;;;;;1.16;100.00;103665.59;5064682;28;20068;-73
2023/01/23 02:00:47;;;;;;;;;;;;;;;1.16;100.00;103668.19;5070395;28;20026;-73
2023/01/23 02:03:12;;;;;;;;;;;;;;;1.17;100.00;103679.50;5064424;28;20481;-73
2023/01/23 02:05:45;;;;;;;;;;;;;;;1.17;100.00;103682.13;5062975;28;19928;-74
2023/01/23 02:08:13;;;;;;;;;;;;;;;1.16;100.00;103677.75;5050762;28;19935;-74
2023/01/23 02:10:39;;;;;;;;;;;;;;;1.16;100.00;103672.53;5064326;28;20031;-74
2023/01/23 02:13:17;;;;;;;;;;;;;;;1.16;100.00;103688.19;5069725;28;19935;-74
2023/01/23 02:15:42;;;;;;;;;;;;;;;1.14;100.00;103688.09;5048328;28;19928;-73
2023/01/23 02:18:08;;;;;;;;;;;;;;;1.15;100.00;103691.63;5064513;28;19973;-75
2023/01/23 02:20:33;;;;;;;;;;;;;;;1.15;100.00;103683.78;5064432;28;20019;-74
2023/01/23 02:23:17;;;;;;;;;;;;;;;1.13;100.00;103691.56;5065442;28;20185;-74
2023/01/23 02:25:43;;;;;;;;;;;;;;;1.12;100.00;103695.00;5064769;28;19928;-74
2023/01/23 02:28:11;;;;;;;;;;;;;;;1.12;100.00;103692.38;5063889;28;19982;-73
2023/01/23 02:30:38;;;;;;;;;;;;;;;1.12;100.00;103694.09;5064252;28;19928;-74
2023/01/23 02:33:07;;;;;;;;;;;;;;;1.12;100.00;103696.69;5053706;28;19928;-74
2023/01/23 02:35:32;;;;;;;;;;;;;;;1.11;100.00;103698.44;5063907;28;20519;-74
2023/01/23 02:37:59;;;;;;;;;;;;;;;1.12;100.00;103697.59;5064348;28;20042;-73
2023/01/23 02:40:35;;;;;;;;;;;;;;;1.12;100.00;103694.09;5067025;28;19928;-73
2023/01/23 02:43:02;;;;;;;;;;;;;;;1.12;100.00;103702.81;5064263;28;19931;-73
2023/01/23 02:45:27;;;;;;;;;;;;;;;1.11;100.00;103698.44;5069254;28;19932;-73
2023/01/23 02:47:55;;;;;;;;;;;;;;;1.12;100.00;103699.31;5063060;28;20434;-74
2023/01/23 02:50:21;;;;;;;;;;;;;;;1.11;100.00;103698.44;5063491;28;20027;-73
2023/01/23 02:52:48;;;;;;;;;;;;;;;1.11;100.00;103698.44;5066490;28;20391;-74
2023/01/23 02:55:13;;;;;;;;;;;;;;;1.11;100.00;103688.00;5065978;28;19931;-73
2023/01/23 02:57:39;;;;;;;;;;;;;;;1.11;100.00;103695.84;5063521;28;20397;-73
2023/01/23 03:00:19;;;;;;;;;;;;;;;1.10;100.00;103696.66;5067947;28;19924;-73
2023/01/23 03:02:48;;;;;;;;;;;;;;;1.11;100.00;103693.22;5063329;28;19924;-73
2023/01/23 03:05:14;;;;;;;;;;;;;;;1.10;100.00;103694.06;5066591;28;19916;-74
2023/01/23 03:07:39;;;;;;;;;;;;;;;1.11;100.00;103692.31;5069236;28;19939;-74
2023/01/23 03:10:06;;;;;;;;;;;;;;;1.11;100.00;103692.31;5063747;28;19938;-74
2023/01/23 03:12:32;;;;;;;;;;;;;;;1.08;100.00;103693.97;5063025;28;19928;-73
2023/01/23 03:14:57;;;;;;;;;;;;;;;1.09;100.00;103700.06;5063696;28;20492;-74
2023/01/23 03:17:23;;;;;;;;;;;;;;;1.10;100.00;103698.38;5063644;28;19993;-74
2023/01/23 03:19:48;;;;;;;;;;;;;;;1.08;100.00;103693.97;5063414;28;19924;-74
2023/01/23 03:22:14;;;;;;;;;;;;;;;1.09;100.00;103697.47;5066471;28;19927;-74
2023/01/23 03:24:39;;;;;;;;;;;;;;;1.09;100.00;103697.47;5066029;28;19989;-74
2023/01/23 03:27:04;;;;;;;;;;;;;;;1.08;100.00;103708.72;5049825;28;19924;-74
2023/01/23 03:32:14;;;;;;;;;;;;;;;1.08;100.00;103720.09;5063438;28;19932;-73
2023/01/23 03:34:40;;;;;;;;;;;;;;;1.08;100.00;103716.56;5063488;28;19928;-73
2023/01/23 03:37:06;;;;;;;;;;;;;;;1.08;100.00;103724.41;5068129;28;20395;-73
2023/01/23 03:42:16;;;;;;;;;;;;;;;1.08;100.00;103729.63;5068118;28;20413;-74
2023/01/23 03:44:41;;;;;;;;;;;;;;;1.07;100.00;103728.75;5063328;28;19935;-74
2023/01/23 03:47:07;;;;;;;;;;;;;;;1.09;100.00;103731.41;5062958;28;19939;-74
2023/01/23 03:49:32;;;;;;;;;;;;;;;1.08;100.00;103727.91;5063092;28;19936;-74
2023/01/23 03:51:57;;;;;;;;;;;;;;;1.08;100.00;103724.41;5062770;28;19932;-74
2023/01/23 03:54:23;;;;;;;;;;;;;;;1.09;100.00;103723.56;5065831;28;20390;-74
2023/01/23 03:56:48;;;;;;;;;;;;;;;1.08;100.00;103713.97;5065981;28;19928;-73
2023/01/23 03:59:13;;;;;;;;;;;;;;;1.08;100.00;103711.34;5062633;28;19939;-73
2023/01/23 04:01:39;;;;;;;;;;;;;;;1.08;100.00;103707.03;5065937;28;20365;-75
2023/01/23 04:04:04;;;;;;;;;;;;;;;1.08;100.00;103713.97;5061721;28;19935;-74
2023/01/23 04:06:30;;;;;;;;;;;;;;;1.07;100.00;103713.09;5068835;28;19928;-74
2023/01/23 04:08:57;;;;;;;;;;;;;;;1.07;100.00;103710.47;5063432;28;20395;-74
2023/01/23 04:11:22;;;;;;;;;;;;;;;1.05;100.00;103714.72;5051023;28;19947;-74
2023/01/23 04:13:48;;;;;;;;;;;;;;;1.04;100.00;103709.47;5069601;28;20379;-74
2023/01/23 04:16:13;;;;;;;;;;;;;;;1.05;100.00;103709.50;5046708;28;19928;-74
2023/01/23 04:18:38;;;;;;;;;;;;;;;1.03;100.00;103705.94;5062810;28;20296;-74
2023/01/23 04:21:04;;;;;;;;;;;;;;;1.03;100.00;103705.06;5063413;28;19924;-74
2023/01/23 04:23:29;;;;;;;;;;;;;;;1.02;100.00;103708.47;5065788;28;20087;-74
2023/01/23 04:25:55;;;;;;;;;;;;;;;1.03;100.00;103710.28;5067878;28;20386;-74
2023/01/23 04:28:20;;;;;;;;;;;;;;;1.02;100.00;103716.31;5069818;28;20382;-74
2023/01/23 04:30:45;;;;;;;;;;;;;;;1.01;100.00;103718.06;5066588;28;20397;-74
2023/01/23 04:33:11;;;;;;;;;;;;;;;1.00;100.00;103720.59;5066852;28;20363;-74
2023/01/23 04:35:36;;;;;;;;;;;;;;;1.00;100.00;103731.03;5069813;28;20383;-74
2023/01/23 04:38:02;;;;;;;;;;;;;;;0.97;100.00;103737.00;5055838;28;19928;-75
2023/01/23 04:40:27;;;;;;;;;;;;;;;0.97;100.00;103731.78;5066511;28;19935;-74
2023/01/23 04:42:55;;;;;;;;;;;;;;;0.97;100.00;103730.91;5069424;28;19925;-74
2023/01/23 04:45:20;;;;;;;;;;;;;;;0.97;100.00;103736.13;5066054;28;20038;-73
2023/01/23 04:47:46;;;;;;;;;;;;;;;0.97;100.00;103737.00;5065717;28;20418;-74
2023/01/23 04:50:11;;;;;;;;;;;;;;;0.97;100.00;103730.91;5065828;28;19932;-75
2023/01/23 04:52:36;;;;;;;;;;;;;;;0.96;100.00;103735.22;5054703;28;19935;-74
2023/01/23 04:55:02;;;;;;;;;;;;;;;0.97;100.00;103731.78;5068546;28;19951;-74
2023/01/23 04:57:27;;;;;;;;;;;;;;;0.96;100.00;103730.00;5065935;28;19932;-74
2023/01/23 04:59:52;;;;;;;;;;;;;;;0.94;100.00;103735.16;5065519;28;19934;-74
2023/01/23 05:02:21;;;;;;;;;;;;;;;0.94;100.00;103727.34;5068314;28;19936;-73
2023/01/23 05:04:46;;;;;;;;;;;;;;;0.93;100.00;103735.13;5054665;28;19939;-74
2023/01/23 05:07:12;;;;;;;;;;;;;;;0.92;100.00;103729.00;5065913;28;19933;-74
2023/01/23 05:09:37;;;;;;;;;;;;;;;0.92;100.00;103725.47;5065701;28;20391;-74
2023/01/23 05:12:03;;;;;;;;;;;;;;;0.91;100.00;103732.44;5065196;28;19943;-75
2023/01/23 05:14:28;;;;;;;;;;;;;;;0.90;100.00;103735.88;5065837;28;20606;-75
2023/01/23 05:16:54;;;;;;;;;;;;;;;0.91;100.00;103735.03;5069856;28;19935;-75
2023/01/23 05:19:19;;;;;;;;;;;;;;;0.90;100.00;103741.09;5065813;28;19939;-74
2023/01/23 05:21:44;;;;;;;;;;;;;;;0.89;100.00;103749.75;5065018;28;19932;-74
2023/01/23 05:24:10;;;;;;;;;;;;;;;0.87;100.00;103748.78;5065452;28;20384;-74
2023/01/23 05:26:35;;;;;;;;;;;;;;;0.87;100.00;103740.09;5065459;28;20771;-74
2023/01/23 05:29:00;;;;;;;;;;;;;;;0.86;100.00;103728.75;5065331;28;20459;-74
2023/01/23 05:31:26;;;;;;;;;;;;;;;0.86;100.00;103743.53;5065130;28;20685;-74
2023/01/23 05:33:51;;;;;;;;;;;;;;;0.86;100.00;103743.53;5071139;28;19932;-73
2023/01/23 05:36:17;;;;;;;;;;;;;;;0.85;100.00;103744.31;5064323;28;20116;-73
2023/01/23 05:38:42;;;;;;;;;;;;;;;0.86;100.00;103748.75;5054598;28;21533;-74
2023/01/23 05:41:07;;;;;;;;;;;;;;;0.86;100.00;103747.00;5064968;28;19955;-76
2023/01/23 05:43:33;;;;;;;;;;;;;;;0.87;100.00;103740.09;5070950;28;19932;-75
2023/01/23 05:46:00;;;;;;;;;;;;;;;0.86;100.00;103749.59;5064987;28;21635;-75
2023/01/23 05:48:25;;;;;;;;;;;;;;;0.86;100.00;103747.00;5079959;28;20043;-74
2023/01/23 05:50:50;;;;;;;;;;;;;;;0.87;100.00;103740.94;5064451;28;19924;-74
2023/01/23 05:53:16;;;;;;;;;;;;;;;0.87;100.00;103746.16;5064512;28;20268;-75
2023/01/23 05:55:41;;;;;;;;;;;;;;;0.86;100.00;103743.53;5064146;28;19939;-74
2023/01/23 05:58:07;;;;;;;;;;;;;;;0.86;100.00;103739.16;5064585;28;19944;-74
2023/01/23 06:00:32;;;;;;;;;;;;;;;0.86;100.00;103743.53;5065883;28;20355;-74
2023/01/23 06:02:57;;;;;;;;;;;;;;;0.86;100.00;103749.59;5070623;28;19969;-75
2023/01/23 06:05:23;;;;;;;;;;;;;;;0.86;100.00;103746.13;5064595;28;19975;-75
2023/01/23 06:07:48;;;;;;;;;;;;;;;0.85;100.00;103747.84;5053396;28;19932;-75
2023/01/23 06:10:13;;;;;;;;;;;;;;;0.84;100.00;103761.72;5064177;28;19936;-75
2023/01/23 06:12:39;;;;;;;;;;;;;;;0.83;100.00;103754.72;5048031;28;19939;-73
2023/01/23 06:15:04;;;;;;;;;;;;;;;0.81;100.00;103761.56;5064008;28;19932;-73
2023/01/23 06:17:30;;;;;;;;;;;;;;;0.81;100.00;103761.56;5064487;28;19962;-74
2023/01/23 06:19:55;;;;;;;;;;;;;;;0.80;100.00;103759.78;5063872;28;20439;-74
2023/01/23 06:22:20;;;;;;;;;;;;;;;0.81;100.00;103758.94;5064324;28;20315;-74
2023/01/23 06:24:46;;;;;;;;;;;;;;;0.79;100.00;103758.91;5053655;28;20037;-74
2023/01/23 06:27:11;;;;;;;;;;;;;;;0.79;100.00;103758.00;5062692;28;19955;-73
2023/01/23 06:29:36;;;;;;;;;;;;;;;0.80;100.00;103754.56;5063307;28;20079;-74
2023/01/23 06:32:02;;;;;;;;;;;;;;;0.80;100.00;103751.97;5064961;28;20650;-74
2023/01/23 06:34:28;;;;;;;;;;;;;;;0.80;100.00;103755.47;5063943;28;22109;-73
2023/01/23 06:36:53;;;;;;;;;;;;;;;0.81;100.00;103745.91;5066576;28;19932;-74
2023/01/23 06:39:18;;;;;;;;;;;;;;;0.83;100.00;103756.41;5065897;28;20023;-74
2023/01/23 06:41:44;;;;;;;;;;;;;;;0.83;100.00;103759.03;5063596;28;19932;-74
2023/01/23 06:44:09;;;;;;;;;;;;;;;0.84;100.00;103753.88;5065975;28;19924;-74
2023/01/23 06:46:35;;;;;;;;;;;;;;;0.83;100.00;103757.31;5068862;28;20051;-74
2023/01/23 06:49:01;;;;;;;;;;;;;;;0.83;100.00;103753.81;5062500;28;19934;-74
2023/01/23 06:51:26;;;;;;;;;;;;;;;0.81;100.00;103757.25;5069408;28;19928;-74
2023/01/23 06:53:51;;;;;;;;;;;;;;;0.81;100.00;103753.72;5063448;28;19928;-74
2023/01/23 06:56:16;;;;;;;;;;;;;;;0.81;100.00;103753.72;5066420;28;19928;-74
2023/01/23 06:58:42;;;;;;;;;;;;;;;0.79;100.00;103758.00;5063417;28;20059;-73
2023/01/23 07:01:11;;;;;;;;;;;;;;;0.76;100.00;103763.09;5069701;28;19963;-74
2023/01/23 07:03:37;;;;;;;;;;;;;;;0.73;100.00;103766.47;5069215;28;20298;-74
2023/01/23 07:06:06;;;;;;;;;;;;;;;0.72;100.00;103774.22;5063970;28;20627;-74
2023/01/23 07:08:32;;;;;;;;;;;;;;;0.69;100.00;103771.50;5061999;28;19929;-74
2023/01/23 07:10:57;;;;;;;;;;;;;;;0.65;100.00;103776.56;5062643;28;19924;-73
2023/01/23 07:13:22;;;;;;;;;;;;;;;0.61;100.00;103785.06;5063492;28;19939;-74
2023/01/23 07:15:48;;;;;;;;;;;;;;;0.58;100.00;103792.78;5069862;28;19939;-74
2023/01/23 07:18:13;;;;;;;;;;;;;;;0.54;100.00;103793.44;5062821;28;19936;-73
2023/01/23 07:20:39;;;;;;;;;;;;;;;0.50;100.00;103786.34;5062143;28;19935;-74
2023/01/23 07:23:04;;;;;;;;;;;;;;;0.46;100.00;103789.63;5062314;28;20179;-74
2023/01/23 07:25:30;;;;;;;;;;;;;;;0.44;100.00;103786.06;5063248;28;20393;-74
2023/01/23 07:27:55;;;;;;;;;;;;;;;0.41;100.00;103781.59;5056643;28;19928;-74
2023/01/23 07:30:20;;;;;;;;;;;;;;;0.39;100.00;103786.72;5062019;28;20369;-74
2023/01/23 07:32:46;;;;;;;;;;;;;;;0.37;100.00;103793.59;5058734;28;19935;-75
2023/01/23 07:35:11;;;;;;;;;;;;;;;0.37;100.00;103790.09;5045247;28;19931;-75
2023/01/23 07:37:36;;;;;;;;;;;;;;;0.35;100.00;103796.97;5049269;28;19981;-75
2023/01/23 07:40:02;;;;;;;;;;;;;;;0.34;100.00;103806.53;5064654;28;20939;-75
2023/01/23 07:42:27;;;;;;;;;;;;;;;0.34;100.00;103803.91;5060329;28;19932;-75
2023/01/23 07:44:53;;;;;;;;;;;;;;;0.35;100.00;103813.50;5041201;28;20031;-75
2023/01/23 07:47:18;;;;;;;;;;;;;;;0.36;100.00;103815.28;5062930;28;20582;-75
2023/01/23 07:49:44;;;;;;;;;;;;;;;0.37;100.00;103822.28;5057319;28;19928;-75
2023/01/23 07:52:09;;;;;;;;;;;;;;;0.39;100.00;103828.44;5059522;28;19967;-75
2023/01/23 07:54:35;;;;;;;;;;;;;;;0.40;100.00;103816.31;5060830;28;20627;-74
2023/01/23 07:57:00;;;;;;;;;;;;;;;0.40;100.00;103814.59;5060231;28;20398;-74
2023/01/23 07:59:26;;;;;;;;;;;;;;;0.41;100.00;103828.53;5064954;28;19931;-75
2023/01/23 08:01:51;;;;;;;;;;;;;;;0.42;100.00;103824.22;5065496;28;20442;-75
2023/01/23 08:04:19;;;;;;;;;;;;;;;0.44;100.00;103838.19;5043939;28;20552;-77
2023/01/23 08:06:44;;;;;;;;;;;;;;;0.45;100.00;103840.88;5063936;28;19953;-76
2023/01/23 08:09:10;;;;;;;;;;;;;;;0.48;100.00;103838.41;5067593;28;19932;-76
2023/01/23 08:11:35;;;;;;;;;;;;;;;0.50;100.00;103843.69;5054485;28;20022;-76
2023/01/23 08:14:01;;;;;;;;;;;;;;;0.51;100.00;103851.59;5066058;28;19939;-75
2023/01/23 08:16:27;;;;;;;;;;;;;;;0.51;100.00;103848.09;5057362;28;20313;-76
2023/01/23 08:18:52;;;;;;;;;;;;;;;0.53;100.00;103847.34;5059534;28;20379;-77
2023/01/23 08:21:18;;;;;;;;;;;;;;;0.57;100.00;103853.56;5045820;28;19924;-76
2023/01/23 08:23:45;;;;;;;;;;;;;;;0.60;100.00;103856.31;5064415;28;20283;-77
2023/01/23 08:26:10;;;;;;;;;;;;;;;0.61;100.00;103865.91;5063351;28;19928;-77
2023/01/23 08:28:36;;;;;;;;;;;;;;;0.63;100.00;103855.56;5065502;28;19931;-77
2023/01/23 08:31:02;;;;;;;;;;;;;;;0.65;100.00;103856.53;5064561;28;19943;-77
2023/01/23 08:33:28;;;;;;;;;;;;;;;0.66;100.00;103861.78;5061195;28;19928;-77
2023/01/23 08:35:54;;;;;;;;;;;;;;;0.69;100.00;103863.66;5066935;28;20363;-77
2023/01/23 08:38:20;;;;;;;;;;;;;;;0.72;100.00;103868.13;5061142;28;20059;-77
2023/01/23 08:40:46;;;;;;;;;;;;;;;0.74;100.00;103871.69;5058671;28;19925;-79
2023/01/23 08:43:12;;;;;;;;;;;;;;;0.75;100.00;103873.47;5067229;28;19924;-77
2023/01/23 08:45:39;;;;;;;;;;;;;;;0.78;100.00;103882.34;5051834;28;19928;-77
2023/01/23 08:48:04;;;;;;;;;;;;;;;0.80;100.00;103880.69;5058177;28;19935;-77
2023/01/23 08:50:29;;;;;;;;;;;;;;;0.83;100.00;103886.84;5060388;28;19925;-76
2023/01/23 08:52:55;;;;;;;;;;;;;;;0.85;100.00;103885.19;5057012;28;19960;-76
2023/01/23 08:55:20;;;;;;;;;;;;;;;0.86;100.00;103890.47;5057663;28;20749;-77
2023/01/23 08:57:46;;;;;;;;;;;;;;;0.88;100.00;103887.94;5057165;28;19948;-76
2023/01/23 09:00:11;;;;;;;;;;;;;;;0.89;100.00;103898.47;5057992;28;19931;-77
2023/01/23 09:02:37;;;;;;;;;;;;;;;0.92;100.00;103889.84;5047323;28;19935;-76
2023/01/23 09:05:03;;;;;;;;;;;;;;;0.93;100.00;103895.16;5060440;28;19932;-76
2023/01/23 09:07:29;;;;;;;;;;;;;;;0.95;100.00;103887.41;5061814;28;19931;-76
2023/01/23 09:09:54;;;;;;;;;;;;;;;0.98;100.00;103897.09;5053230;28;19933;-76
2023/01/23 09:12:20;;;;;;;;;;;;;;;1.00;100.00;103900.63;5056635;28;20401;-76
2023/01/23 09:14:45;;;;;;;;;;;;;;;1.02;100.00;103894.66;5057434;28;20194;-76
2023/01/23 09:17:10;;;;;;;;;;;;;;;1.03;100.00;103895.56;5042155;28;19970;-77
2023/01/23 09:19:36;;;;;;;;;;;;;;;1.04;100.00;103894.75;5050597;28;19939;-76
2023/01/23 09:22:02;;;;;;;;;;;;;;;1.05;100.00;103896.53;5057028;28;20536;-76
2023/01/23 09:24:27;;;;;;;;;;;;;;;1.07;100.00;103902.69;5058101;28;19931;-76
2023/01/23 09:26:53;;;;;;;;;;;;;;;1.08;100.00;103899.25;5062902;28;19939;-76
2023/01/23 09:29:18;;;;;;;;;;;;;;;1.08;100.00;103899.25;5064600;28;19932;-76
2023/01/23 09:31:44;;;;;;;;;;;;;;;1.09;100.00;103914.06;5049928;28;19929;-76
2023/01/23 09:34:09;;;;;;;;;;;;;;;1.11;100.00;103914.16;5055109;28;20051;-77
2023/01/23 09:36:34;;;;;;;;;;;;;;;1.12;100.00;103914.22;5059525;28;20121;-75
2023/01/23 09:39:00;;;;;;;;;;;;;;;1.12;100.00;103906.41;5064360;28;20715;-75
2023/01/23 09:41:26;;;;;;;;;;;;;;;1.15;100.00;103909.13;5078778;28;19940;-75
2023/01/23 09:43:52;;;;;;;;;;;;;;;1.16;100.00;103916.16;5047660;28;19924;-75
2023/01/23 09:46:17;;;;;;;;;;;;;;;1.19;100.00;103916.28;5053625;28;20549;-75
2023/01/23 09:48:43;;;;;;;;;;;;;;;1.20;100.00;103915.44;5057853;28;20453;-75
2023/01/23 09:51:12;;;;;;;;;;;;;;;1.22;100.00;103919.00;5063806;28;19924;-76
2023/01/23 09:53:40;;;;;;;;;;;;;;;1.22;100.00;103916.38;5061135;28;19952;-76
2023/01/23 09:56:11;;;;;;;;;;;;;;;1.24;100.00;103910.38;5077127;28;19982;-76
2023/01/23 09:58:38;;;;;;;;;;;;;;;1.23;100.00;103917.28;5063037;28;19928;-76
2023/01/23 10:01:04;;;;;;;;;;;;;;;1.25;100.00;103914.75;5064123;28;19936;-75
2023/01/23 10:03:30;;;;;;;;;;;;;;;1.25;100.00;103918.25;5060203;28;19978;-75
2023/01/23 10:06:11;;;;;;;;;;;;;;;1.27;100.00;103918.31;5068118;28;19924;-76
2023/01/23 10:08:43;;;;;;;;;;;;;;;1.28;100.00;103921.00;5069980;28;19960;-75
2023/01/23 10:11:16;;;;;;;;;;;;;;;1.29;100.00;103908.81;5061142;28;19928;-76
2023/01/23 10:13:47;;;;;;;;;;;;;;;1.33;100.00;103908.16;5059541;28;19924;-76
2023/01/23 10:16:25;;;;;;;;;;;;;;;1.36;100.00;103903.03;5059903;28;21589;-76
2023/01/23 10:18:53;;;;;;;;;;;;;;;1.38;100.00;103898.78;5062034;28;20027;-76
2023/01/23 10:21:45;;;;;;;;;;;;;;;1.40;100.00;103896.22;5062476;28;19928;-76
2023/01/23 10:24:20;;;;;;;;;;;;;;;1.40;100.00;103893.63;5057309;28;19924;-76
2023/01/23 10:26:46;;;;;;;;;;;;;;;1.43;100.00;103892.06;5068884;28;19931;-76
2023/01/23 10:29:17;;;;;;;;;;;;;;;1.44;100.00;103896.44;5064462;28;19925;-78
2023/01/23 10:31:45;;;;;;;;;;;;;;;1.46;100.00;103900.00;5050057;28;20926;-75
2023/01/23 10:34:19;;;;;;;;;;;;;;;1.49;100.00;103894.88;5061870;28;19928;-75
2023/01/23 10:36:47;;;;;;;;;;;;;;;1.52;100.00;103894.13;5058537;28;20403;-75
2023/01/23 10:39:15;;;;;;;;;;;;;;;1.54;100.00;103896.81;5057572;28;19977;-76
2023/01/23 10:41:40;;;;;;;;;;;;;;;1.57;100.00;103896.97;5061026;28;20959;-73
2023/01/23 10:44:16;;;;;;;;;;;;;;;1.60;100.00;103897.06;5061574;28;20018;-75
2023/01/23 10:46:44;;;;;;;;;;;;;;;1.63;100.00;103889.34;5062030;28;19928;-73
2023/01/23 10:49:10;;;;;;;;;;;;;;;1.67;100.00;103896.50;5060251;28;19939;-73
2023/01/23 10:51:37;;;;;;;;;;;;;;;1.69;100.00;103892.22;5058249;28;20201;-74
2023/01/23 10:54:22;;;;;;;;;;;;;;;1.72;100.00;103894.06;5059988;28;20148;-74
2023/01/23 10:56:48;;;;;;;;;;;;;;;1.73;100.00;103895.84;5066907;28;19932;-74
2023/01/23 10:59:23;;;;;;;;;;;;;;;1.74;100.00;103900.25;5058907;28;20314;-74
2023/01/23 11:01:58;;;;;;;;;;;;;;;1.76;100.00;103903.81;5057670;28;19963;-74
2023/01/23 11:04:25;;;;;;;;;;;;;;;1.83;100.00;103904.94;5057938;28;20011;-76
2023/01/23 11:07:26;;;;;;;;;;;;;;;1.87;100.00;103906.88;5063798;28;19960;-74
2023/01/23 11:09:52;;;;;;;;;;;;;;;1.88;100.00;103901.72;5024129;28;19947;-74
2023/01/23 11:12:19;;;;;;;;;;;;;;;1.88;100.00;103899.09;5054180;28;19953;-76
2023/01/23 11:14:45;;;;;;;;;;;;;;;1.90;100.00;103907.88;5049718;28;20003;-75
2023/01/23 11:17:16;;;;;;;;;;;;;;;1.95;100.00;103894.13;5065023;28;19928;-75
2023/01/23 11:19:42;;;;;;;;;;;;;;;1.99;100.00;103909.97;5058469;28;20693;-77
2023/01/23 11:22:27;;;;;;;;;;;;;;;2.01;100.00;103915.25;5062343;28;19925;-74
2023/01/23 11:24:53;;;;;;;;;;;;;;;1.99;100.00;103919.53;5046888;28;19982;-75
2023/01/23 11:27:29;;;;;;;;;;;;;;;1.99;100.00;103909.06;5063399;28;20387;-75
2023/01/23 11:30:07;;;;;;;;;;;;;;;1.98;100.00;103910.81;5059405;28;19932;-74
2023/01/23 11:32:34;;;;;;;;;;;;;;;2.00;100.00;103914.38;5054907;28;19935;-74
2023/01/23 11:35:20;;;;;;;;;;;;;;;2.01;100.00;103910.00;5059248;28;19924;-76
2023/01/23 11:37:45;;;;;;;;;;;;;;;2.01;100.00;103915.25;5064106;28;19968;-75
2023/01/23 11:40:11;;;;;;;;;;;;;;;2.01;100.00;103915.25;5066319;28;19947;-76
2023/01/23 11:42:38;;;;;;;;;;;;;;;2.05;100.00;103916.28;5058594;28;19931;-74
2023/01/23 11:45:05;;;;;;;;;;;;;;;2.06;100.00;103912.84;5058738;28;19928;-74
2023/01/23 11:47:30;;;;;;;;;;;;;;;2.07;100.00;103912.88;5062320;28;19954;-75
2023/01/23 11:50:10;;;;;;;;;;;;;;;2.08;100.00;103911.16;5061270;28;20295;-74
2023/01/23 11:52:36;;;;;;;;;;;;;;;2.10;100.00;103914.72;5063349;28;19927;-74
2023/01/23 11:55:13;;;;;;;;;;;;;;;2.11;100.00;103913.88;5060243;28;19936;-74
2023/01/23 11:57:58;;;;;;;;;;;;;;;2.11;100.00;103911.25;5056125;28;19953;-74
2023/01/23 12:00:23;;;;;;;;;;;;;;;2.10;100.00;103910.41;5059663;28;20374;-73
2023/01/23 12:02:51;;;;;;;;;;;;;;;2.13;100.00;103912.25;5064363;28;20371;-74
2023/01/23 12:05:24;;;;;;;;;;;;;;;2.15;100.00;103914.09;5059241;28;19931;-73
2023/01/23 12:08:01;;;;;;;;;;;;;;;2.17;100.00;103914.13;5061364;28;19981;-74
2023/01/23 12:10:47;;;;;;;;;;;;;;;2.18;100.00;103918.50;5065924;28;19978;-73
2023/01/23 12:13:16;;;;;;;;;;;;;;;2.19;100.00;103920.31;5051812;28;19925;-74
2023/01/23 12:15:51;;;;;;;;;;;;;;;2.20;100.00;103916.88;5049360;28;19923;-74
2023/01/23 12:18:20;;;;;;;;;;;;;;;2.21;100.00;103925.59;5050538;28;19936;-74
2023/01/23 12:20:58;;;;;;;;;;;;;;;2.20;100.00;103927.34;5041992;28;19994;-74
2023/01/23 12:23:23;;;;;;;;;;;;;;;2.20;100.00;103926.44;5059250;28;20544;-73
2023/01/23 12:26:07;;;;;;;;;;;;;;;2.19;100.00;103919.41;5055571;28;19928;-75
2023/01/23 12:28:48;;;;;;;;;;;;;;;2.19;100.00;103915.09;5059573;28;19979;-73
2023/01/23 12:31:17;;;;;;;;;;;;;;;2.19;100.00;103912.47;5057954;28;19948;-74
2023/01/23 12:33:48;;;;;;;;;;;;;;;2.16;100.00;103914.97;5056466;28;20489;-74
2023/01/23 12:36:32;;;;;;;;;;;;;;;2.13;100.00;103915.72;5057109;28;20091;-74
2023/01/23 12:39:04;;;;;;;;;;;;;;;2.13;100.00;103909.63;5061276;28;19935;-75
2023/01/23 12:41:33;;;;;;;;;;;;;;;2.14;100.00;103919.25;5057487;28;20437;-74